Miami, Florida
Traffic Map
Current Weather Conditions
Miami, Florida
Broken Clouds
Broken Clouds
76°
Feels Like: 76°
Wind Chill: 76° Ceiling: 25000
Heat Index: 76° Visibility: 10mi
Dew Point: 69° Wind: 6mph
Humidity: 79% Direction: 180° (S)
Pressure: 29.83in Gusts: 0mph
Raw Report DataKMIA 220853Z 18005KT 10SM FEW020 SCT050 BKN250 24/21 A2983 RMK AO2 SLP102 T02440206 55005
Traffic Incident Summary
Active as of:
Severity:
Category:
InformationThere was an issue retrieving the traffic information for this location. Please try a different location or try again shortly.
Advertisements
Track Severe Weather on mobile